sensor_id;sensor_type;location;lat;lon;timestamp;temperature;humidity
75931;DHT22;64609;47.052;15.462;2023-09-30T00:00:25;18.00;68.60
75931;DHT22;64609;47.052;15.462;2023-09-30T00:02:52;18.10;68.50
75931;DHT22;64609;47.052;15.462;2023-09-30T00:05:17;18.10;68.40
75931;DHT22;64609;47.052;15.462;2023-09-30T00:07:45;18.00;68.50
75931;DHT22;64609;47.052;15.462;2023-09-30T00:10:11;17.90;68.50
75931;DHT22;64609;47.052;15.462;2023-09-30T00:12:37;17.90;68.70
75931;DHT22;64609;47.052;15.462;2023-09-30T00:15:03;17.90;68.70
75931;DHT22;64609;47.052;15.462;2023-09-30T00:17:29;17.90;68.70
75931;DHT22;64609;47.052;15.462;2023-09-30T00:19:55;17.90;68.80
75931;DHT22;64609;47.052;15.462;2023-09-30T00:22:21;17.90;69.00
75931;DHT22;64609;47.052;15.462;2023-09-30T00:24:47;17.90;69.10
75931;DHT22;64609;47.052;15.462;2023-09-30T00:27:13;17.90;69.10
75931;DHT22;64609;47.052;15.462;2023-09-30T00:29:39;17.90;69.10
75931;DHT22;64609;47.052;15.462;2023-09-30T00:32:05;17.90;69.10
75931;DHT22;64609;47.052;15.462;2023-09-30T00:34:34;17.80;69.00
75931;DHT22;64609;47.052;15.462;2023-09-30T00:37:00;17.70;69.20
75931;DHT22;64609;47.052;15.462;2023-09-30T00:39:25;17.70;69.30
75931;DHT22;64609;47.052;15.462;2023-09-30T00:41:55;17.70;69.40
75931;DHT22;64609;47.052;15.462;2023-09-30T00:44:21;17.70;70.40
75931;DHT22;64609;47.052;15.462;2023-09-30T00:46:47;17.70;69.60
75931;DHT22;64609;47.052;15.462;2023-09-30T00:49:13;17.70;69.70
75931;DHT22;64609;47.052;15.462;2023-09-30T00:51:40;17.80;69.70
75931;DHT22;64609;47.052;15.462;2023-09-30T00:54:06;17.80;69.70
75931;DHT22;64609;47.052;15.462;2023-09-30T00:56:32;17.80;69.60
75931;DHT22;64609;47.052;15.462;2023-09-30T00:58:59;17.80;69.70
75931;DHT22;64609;47.052;15.462;2023-09-30T01:01:25;17.70;69.50
75931;DHT22;64609;47.052;15.462;2023-09-30T01:03:51;17.60;69.50
75931;DHT22;64609;47.052;15.462;2023-09-30T01:06:17;17.60;69.60
75931;DHT22;64609;47.052;15.462;2023-09-30T01:08:43;17.50;69.70
75931;DHT22;64609;47.052;15.462;2023-09-30T01:11:08;17.50;69.90
75931;DHT22;64609;47.052;15.462;2023-09-30T01:13:35;17.50;69.90
75931;DHT22;64609;47.052;15.462;2023-09-30T01:16:08;17.50;69.90
75931;DHT22;64609;47.052;15.462;2023-09-30T01:18:38;17.60;71.00
75931;DHT22;64609;47.052;15.462;2023-09-30T01:21:05;17.50;69.90
75931;DHT22;64609;47.052;15.462;2023-09-30T01:23:32;17.50;70.00
75931;DHT22;64609;47.052;15.462;2023-09-30T01:26:00;17.50;69.90
75931;DHT22;64609;47.052;15.462;2023-09-30T01:28:26;17.50;70.00
75931;DHT22;64609;47.052;15.462;2023-09-30T01:30:52;17.50;69.90
75931;DHT22;64609;47.052;15.462;2023-09-30T01:33:17;17.50;69.90
75931;DHT22;64609;47.052;15.462;2023-09-30T01:35:44;17.50;69.90
75931;DHT22;64609;47.052;15.462;2023-09-30T01:38:10;17.40;69.70
75931;DHT22;64609;47.052;15.462;2023-09-30T01:40:36;17.30;69.80
75931;DHT22;64609;47.052;15.462;2023-09-30T01:43:03;17.30;70.10
75931;DHT22;64609;47.052;15.462;2023-09-30T01:45:29;17.40;70.20
75931;DHT22;64609;47.052;15.462;2023-09-30T01:47:55;17.40;70.10
75931;DHT22;64609;47.052;15.462;2023-09-30T01:50:20;17.40;70.10
75931;DHT22;64609;47.052;15.462;2023-09-30T01:52:46;17.40;70.20
75931;DHT22;64609;47.052;15.462;2023-09-30T01:55:12;17.30;70.20
75931;DHT22;64609;47.052;15.462;2023-09-30T01:57:38;17.30;70.10
75931;DHT22;64609;47.052;15.462;2023-09-30T02:00:04;17.30;70.20
75931;DHT22;64609;47.052;15.462;2023-09-30T02:02:30;17.20;70.40
75931;DHT22;64609;47.052;15.462;2023-09-30T02:04:56;17.20;70.50
75931;DHT22;64609;47.052;15.462;2023-09-30T02:07:22;17.20;70.60
75931;DHT22;64609;47.052;15.462;2023-09-30T02:09:48;17.20;70.80
75931;DHT22;64609;47.052;15.462;2023-09-30T02:12:14;17.30;70.80
75931;DHT22;64609;47.052;15.462;2023-09-30T02:14:40;17.20;70.90
75931;DHT22;64609;47.052;15.462;2023-09-30T02:17:05;17.20;70.90
75931;DHT22;64609;47.052;15.462;2023-09-30T02:19:31;17.30;71.00
75931;DHT22;64609;47.052;15.462;2023-09-30T02:21:59;17.30;71.90
75931;DHT22;64609;47.052;15.462;2023-09-30T02:24:25;17.30;70.80
75931;DHT22;64609;47.052;15.462;2023-09-30T02:26:51;17.40;70.90
75931;DHT22;64609;47.052;15.462;2023-09-30T02:29:16;17.40;70.90
75931;DHT22;64609;47.052;15.462;2023-09-30T02:31:42;17.40;71.00
75931;DHT22;64609;47.052;15.462;2023-09-30T02:34:08;17.40;70.90
75931;DHT22;64609;47.052;15.462;2023-09-30T02:36:34;17.40;71.00
75931;DHT22;64609;47.052;15.462;2023-09-30T02:39:04;17.40;71.10
75931;DHT22;64609;47.052;15.462;2023-09-30T02:41:30;17.40;71.10
75931;DHT22;64609;47.052;15.462;2023-09-30T02:43:56;17.40;71.20
75931;DHT22;64609;47.052;15.462;2023-09-30T02:46:21;17.40;71.20
75931;DHT22;64609;47.052;15.462;2023-09-30T02:48:47;17.40;71.20
75931;DHT22;64609;47.052;15.462;2023-09-30T02:51:12;17.40;71.20
75931;DHT22;64609;47.052;15.462;2023-09-30T02:53:38;17.40;71.30
75931;DHT22;64609;47.052;15.462;2023-09-30T02:56:04;17.40;71.40
75931;DHT22;64609;47.052;15.462;2023-09-30T02:58:30;17.40;72.20
75931;DHT22;64609;47.052;15.462;2023-09-30T03:00:56;17.40;71.60
75931;DHT22;64609;47.052;15.462;2023-09-30T03:03:22;17.40;71.60
75931;DHT22;64609;47.052;15.462;2023-09-30T03:05:50;17.40;71.60
75931;DHT22;64609;47.052;15.462;2023-09-30T03:08:16;17.40;71.70
75931;DHT22;64609;47.052;15.462;2023-09-30T03:10:42;17.40;72.00
75931;DHT22;64609;47.052;15.462;2023-09-30T03:13:08;17.30;72.00
75931;DHT22;64609;47.052;15.462;2023-09-30T03:15:35;17.20;72.10
75931;DHT22;64609;47.052;15.462;2023-09-30T03:18:01;17.20;72.20
75931;DHT22;64609;47.052;15.462;2023-09-30T03:20:27;17.20;72.30
75931;DHT22;64609;47.052;15.462;2023-09-30T03:22:53;17.20;72.10
75931;DHT22;64609;47.052;15.462;2023-09-30T03:25:20;17.20;72.10
75931;DHT22;64609;47.052;15.462;2023-09-30T03:27:47;17.10;72.30
75931;DHT22;64609;47.052;15.462;2023-09-30T03:30:13;17.10;72.50
75931;DHT22;64609;47.052;15.462;2023-09-30T03:32:41;17.20;72.50
75931;DHT22;64609;47.052;15.462;2023-09-30T03:35:08;17.30;72.40
75931;DHT22;64609;47.052;15.462;2023-09-30T03:37:37;17.30;72.30
75931;DHT22;64609;47.052;15.462;2023-09-30T03:40:03;17.30;72.40
75931;DHT22;64609;47.052;15.462;2023-09-30T03:42:51;17.30;72.40
75931;DHT22;64609;47.052;15.462;2023-09-30T03:45:17;17.40;72.40
75931;DHT22;64609;47.052;15.462;2023-09-30T03:47:44;17.40;72.20
75931;DHT22;64609;47.052;15.462;2023-09-30T03:50:11;17.40;72.20
75931;DHT22;64609;47.052;15.462;2023-09-30T03:52:40;17.50;72.20
75931;DHT22;64609;47.052;15.462;2023-09-30T03:55:12;17.50;72.20
75931;DHT22;64609;47.052;15.462;2023-09-30T03:57:38;17.50;72.30
75931;DHT22;64609;47.052;15.462;2023-09-30T04:00:04;17.40;72.20
75931;DHT22;64609;47.052;15.462;2023-09-30T04:02:36;17.50;72.30
75931;DHT22;64609;47.052;15.462;2023-09-30T04:05:02;17.40;72.20
75931;DHT22;64609;47.052;15.462;2023-09-30T04:07:29;17.40;72.20
75931;DHT22;64609;47.052;15.462;2023-09-30T04:09:55;17.40;72.40
75931;DHT22;64609;47.052;15.462;2023-09-30T04:12:21;17.30;72.60
75931;DHT22;64609;47.052;15.462;2023-09-30T04:14:51;17.30;72.60
75931;DHT22;64609;47.052;15.462;2023-09-30T04:17:17;17.40;72.70
75931;DHT22;64609;47.052;15.462;2023-09-30T04:19:43;17.40;72.80
75931;DHT22;64609;47.052;15.462;2023-09-30T04:22:08;17.40;72.80
75931;DHT22;64609;47.052;15.462;2023-09-30T04:24:34;17.40;72.70
75931;DHT22;64609;47.052;15.462;2023-09-30T04:27:00;17.40;72.70
75931;DHT22;64609;47.052;15.462;2023-09-30T04:29:29;17.40;73.60
75931;DHT22;64609;47.052;15.462;2023-09-30T04:31:56;17.40;72.80
75931;DHT22;64609;47.052;15.462;2023-09-30T04:34:21;17.40;72.90
75931;DHT22;64609;47.052;15.462;2023-09-30T04:36:47;17.30;73.00
75931;DHT22;64609;47.052;15.462;2023-09-30T04:39:13;17.20;73.30
75931;DHT22;64609;47.052;15.462;2023-09-30T04:41:40;17.20;73.30
75931;DHT22;64609;47.052;15.462;2023-09-30T04:44:09;17.30;73.30
75931;DHT22;64609;47.052;15.462;2023-09-30T04:46:35;17.30;73.30
75931;DHT22;64609;47.052;15.462;2023-09-30T04:49:02;17.40;73.30
75931;DHT22;64609;47.052;15.462;2023-09-30T04:51:28;17.50;73.20
75931;DHT22;64609;47.052;15.462;2023-09-30T04:53:53;17.40;73.10
75931;DHT22;64609;47.052;15.462;2023-09-30T04:56:20;17.50;73.30
75931;DHT22;64609;47.052;15.462;2023-09-30T04:58:46;17.50;73.10
75931;DHT22;64609;47.052;15.462;2023-09-30T05:01:12;17.50;73.00
75931;DHT22;64609;47.052;15.462;2023-09-30T05:03:38;17.60;73.00
75931;DHT22;64609;47.052;15.462;2023-09-30T05:06:03;17.60;73.00
75931;DHT22;64609;47.052;15.462;2023-09-30T05:08:29;17.60;73.00
75931;DHT22;64609;47.052;15.462;2023-09-30T05:10:56;17.70;73.10
75931;DHT22;64609;47.052;15.462;2023-09-30T05:13:22;17.70;73.10
75931;DHT22;64609;47.052;15.462;2023-09-30T05:15:51;17.70;73.10
75931;DHT22;64609;47.052;15.462;2023-09-30T05:18:17;17.70;73.10
75931;DHT22;64609;47.052;15.462;2023-09-30T05:20:42;17.70;73.10
75931;DHT22;64609;47.052;15.462;2023-09-30T05:23:09;17.70;73.20
75931;DHT22;64609;47.052;15.462;2023-09-30T05:25:39;17.80;73.20
75931;DHT22;64609;47.052;15.462;2023-09-30T05:28:05;17.80;73.20
75931;DHT22;64609;47.052;15.462;2023-09-30T05:30:32;17.80;73.10
75931;DHT22;64609;47.052;15.462;2023-09-30T05:32:59;17.90;73.00
75931;DHT22;64609;47.052;15.462;2023-09-30T05:35:26;17.90;72.90
75931;DHT22;64609;47.052;15.462;2023-09-30T05:37:53;17.90;72.80
75931;DHT22;64609;47.052;15.462;2023-09-30T05:40:20;17.90;72.80
75931;DHT22;64609;47.052;15.462;2023-09-30T05:42:48;17.90;73.00
75931;DHT22;64609;47.052;15.462;2023-09-30T05:45:16;18.00;73.10
75931;DHT22;64609;47.052;15.462;2023-09-30T05:47:42;18.00;73.20
75931;DHT22;64609;47.052;15.462;2023-09-30T05:50:09;18.00;73.20
75931;DHT22;64609;47.052;15.462;2023-09-30T05:52:40;18.00;73.20
75931;DHT22;64609;47.052;15.462;2023-09-30T05:55:06;18.10;73.30
75931;DHT22;64609;47.052;15.462;2023-09-30T05:57:32;18.10;73.10
75931;DHT22;64609;47.052;15.462;2023-09-30T05:59:58;18.10;73.30
75931;DHT22;64609;47.052;15.462;2023-09-30T06:02:24;18.10;73.50
75931;DHT22;64609;47.052;15.462;2023-09-30T06:04:50;18.20;73.60
75931;DHT22;64609;47.052;15.462;2023-09-30T06:07:18;18.20;73.60
75931;DHT22;64609;47.052;15.462;2023-09-30T06:09:45;18.20;73.80
75931;DHT22;64609;47.052;15.462;2023-09-30T06:12:13;18.30;74.00
75931;DHT22;64609;47.052;15.462;2023-09-30T06:14:39;18.30;73.90
75931;DHT22;64609;47.052;15.462;2023-09-30T06:17:07;18.40;74.10
75931;DHT22;64609;47.052;15.462;2023-09-30T06:19:32;18.50;74.20
75931;DHT22;64609;47.052;15.462;2023-09-30T06:21:59;18.50;74.30
75931;DHT22;64609;47.052;15.462;2023-09-30T06:24:25;18.60;74.30
75931;DHT22;64609;47.052;15.462;2023-09-30T06:26:50;18.70;74.40
75931;DHT22;64609;47.052;15.462;2023-09-30T06:29:17;18.70;74.50
75931;DHT22;64609;47.052;15.462;2023-09-30T06:31:42;18.70;74.60
75931;DHT22;64609;47.052;15.462;2023-09-30T06:34:09;18.80;74.80
75931;DHT22;64609;47.052;15.462;2023-09-30T06:36:36;18.80;74.70
75931;DHT22;64609;47.052;15.462;2023-09-30T06:39:03;18.90;74.50
75931;DHT22;64609;47.052;15.462;2023-09-30T06:41:31;19.00;74.20
75931;DHT22;64609;47.052;15.462;2023-09-30T06:43:57;19.10;74.10
75931;DHT22;64609;47.052;15.462;2023-09-30T06:46:23;19.10;73.80
75931;DHT22;64609;47.052;15.462;2023-09-30T06:48:49;19.20;73.60
75931;DHT22;64609;47.052;15.462;2023-09-30T06:51:18;19.30;74.00
75931;DHT22;64609;47.052;15.462;2023-09-30T06:53:43;19.30;73.90
75931;DHT22;64609;47.052;15.462;2023-09-30T06:56:11;19.40;73.80
75931;DHT22;64609;47.052;15.462;2023-09-30T06:58:38;19.40;73.60
75931;DHT22;64609;47.052;15.462;2023-09-30T07:01:04;19.50;73.80
75931;DHT22;64609;47.052;15.462;2023-09-30T07:03:29;19.50;73.70
75931;DHT22;64609;47.052;15.462;2023-09-30T07:05:56;19.50;73.70
75931;DHT22;64609;47.052;15.462;2023-09-30T07:08:22;19.60;73.80
75931;DHT22;64609;47.052;15.462;2023-09-30T07:10:48;19.60;74.10
75931;DHT22;64609;47.052;15.462;2023-09-30T07:13:18;19.70;74.00
75931;DHT22;64609;47.052;15.462;2023-09-30T07:15:44;19.80;74.30
75931;DHT22;64609;47.052;15.462;2023-09-30T07:18:09;19.80;74.50
75931;DHT22;64609;47.052;15.462;2023-09-30T07:20:35;19.80;74.80
75931;DHT22;64609;47.052;15.462;2023-09-30T07:23:01;19.90;75.20
75931;DHT22;64609;47.052;15.462;2023-09-30T07:25:28;19.90;75.30
75931;DHT22;64609;47.052;15.462;2023-09-30T07:27:57;19.90;74.80
75931;DHT22;64609;47.052;15.462;2023-09-30T07:30:23;20.00;74.60
75931;DHT22;64609;47.052;15.462;2023-09-30T07:32:49;20.00;74.40
75931;DHT22;64609;47.052;15.462;2023-09-30T07:35:16;20.10;74.40
75931;DHT22;64609;47.052;15.462;2023-09-30T07:37:42;20.10;74.30
75931;DHT22;64609;47.052;15.462;2023-09-30T07:40:08;20.20;74.10
75931;DHT22;64609;47.052;15.462;2023-09-30T07:42:35;20.20;73.90
75931;DHT22;64609;47.052;15.462;2023-09-30T07:45:02;20.30;74.20
75931;DHT22;64609;47.052;15.462;2023-09-30T07:47:29;20.40;74.30
75931;DHT22;64609;47.052;15.462;2023-09-30T07:49:56;20.40;74.20
75931;DHT22;64609;47.052;15.462;2023-09-30T07:52:21;20.50;74.30
75931;DHT22;64609;47.052;15.462;2023-09-30T07:54:47;20.50;74.00
75931;DHT22;64609;47.052;15.462;2023-09-30T07:57:13;20.60;73.80
75931;DHT22;64609;47.052;15.462;2023-09-30T07:59:38;20.50;73.20
75931;DHT22;64609;47.052;15.462;2023-09-30T08:02:04;20.50;72.70
75931;DHT22;64609;47.052;15.462;2023-09-30T08:04:30;20.50;72.50
75931;DHT22;64609;47.052;15.462;2023-09-30T08:06:56;20.40;72.60
75931;DHT22;64609;47.052;15.462;2023-09-30T08:09:22;20.40;72.80
75931;DHT22;64609;47.052;15.462;2023-09-30T08:11:50;20.40;72.60
75931;DHT22;64609;47.052;15.462;2023-09-30T08:14:16;20.40;72.60
75931;DHT22;64609;47.052;15.462;2023-09-30T08:16:42;20.30;72.40
75931;DHT22;64609;47.052;15.462;2023-09-30T08:19:08;20.40;72.50
75931;DHT22;64609;47.052;15.462;2023-09-30T08:21:34;20.40;72.40
75931;DHT22;64609;47.052;15.462;2023-09-30T08:24:00;20.40;72.30
75931;DHT22;64609;47.052;15.462;2023-09-30T08:26:25;20.40;72.20
75931;DHT22;64609;47.052;15.462;2023-09-30T08:28:51;20.40;72.20
75931;DHT22;64609;47.052;15.462;2023-09-30T08:31:17;20.50;71.80
75931;DHT22;64609;47.052;15.462;2023-09-30T08:33:43;20.60;71.80
75931;DHT22;64609;47.052;15.462;2023-09-30T08:36:11;20.60;71.40
75931;DHT22;64609;47.052;15.462;2023-09-30T08:38:38;20.70;70.90
75931;DHT22;64609;47.052;15.462;2023-09-30T08:41:04;20.70;70.60
75931;DHT22;64609;47.052;15.462;2023-09-30T08:43:30;20.70;70.50
75931;DHT22;64609;47.052;15.462;2023-09-30T08:46:00;20.70;70.40
75931;DHT22;64609;47.052;15.462;2023-09-30T08:48:28;20.70;70.10
75931;DHT22;64609;47.052;15.462;2023-09-30T08:50:55;20.80;70.00
75931;DHT22;64609;47.052;15.462;2023-09-30T08:53:23;20.90;69.90
75931;DHT22;64609;47.052;15.462;2023-09-30T08:55:55;20.90;70.00
75931;DHT22;64609;47.052;15.462;2023-09-30T08:58:26;20.90;70.00
75931;DHT22;64609;47.052;15.462;2023-09-30T09:00:53;21.00;69.90
75931;DHT22;64609;47.052;15.462;2023-09-30T09:03:19;21.00;69.50
75931;DHT22;64609;47.052;15.462;2023-09-30T09:05:46;21.00;69.70
75931;DHT22;64609;47.052;15.462;2023-09-30T09:08:12;21.10;69.20
75931;DHT22;64609;47.052;15.462;2023-09-30T09:10:58;21.00;69.10
75931;DHT22;64609;47.052;15.462;2023-09-30T09:13:27;21.10;69.00
75931;DHT22;64609;47.052;15.462;2023-09-30T09:16:09;21.10;69.00
75931;DHT22;64609;47.052;15.462;2023-09-30T09:18:35;21.20;69.00
75931;DHT22;64609;47.052;15.462;2023-09-30T09:21:08;21.30;68.80
75931;DHT22;64609;47.052;15.462;2023-09-30T09:23:41;21.40;68.50
75931;DHT22;64609;47.052;15.462;2023-09-30T09:26:11;21.50;68.20
75931;DHT22;64609;47.052;15.462;2023-09-30T09:28:37;21.60;68.00
75931;DHT22;64609;47.052;15.462;2023-09-30T09:31:31;21.70;67.80
75931;DHT22;64609;47.052;15.462;2023-09-30T09:34:00;21.80;67.90
75931;DHT22;64609;47.052;15.462;2023-09-30T09:36:43;22.00;67.40
75931;DHT22;64609;47.052;15.462;2023-09-30T09:39:10;22.10;67.30
75931;DHT22;64609;47.052;15.462;2023-09-30T09:41:51;22.10;67.20
75931;DHT22;64609;47.052;15.462;2023-09-30T09:44:20;22.20;66.90
75931;DHT22;64609;47.052;15.462;2023-09-30T09:46:51;22.30;67.00
75931;DHT22;64609;47.052;15.462;2023-09-30T09:49:17;22.30;66.80
75931;DHT22;64609;47.052;15.462;2023-09-30T09:51:47;22.40;66.40
75931;DHT22;64609;47.052;15.462;2023-09-30T09:54:15;22.50;66.10
75931;DHT22;64609;47.052;15.462;2023-09-30T09:56:43;22.60;65.70
75931;DHT22;64609;47.052;15.462;2023-09-30T09:59:11;22.60;65.90
75931;DHT22;64609;47.052;15.462;2023-09-30T10:01:39;22.80;65.60
75931;DHT22;64609;47.052;15.462;2023-09-30T10:04:06;22.90;64.60
75931;DHT22;64609;47.052;15.462;2023-09-30T10:06:32;23.00;65.00
75931;DHT22;64609;47.052;15.462;2023-09-30T10:09:06;23.10;64.60
75931;DHT22;64609;47.052;15.462;2023-09-30T10:11:33;23.10;63.80
75931;DHT22;64609;47.052;15.462;2023-09-30T10:13:59;23.10;63.90
75931;DHT22;64609;47.052;15.462;2023-09-30T10:19:09;23.00;64.10
75931;DHT22;64609;47.052;15.462;2023-09-30T10:21:36;23.10;64.30
75931;DHT22;64609;47.052;15.462;2023-09-30T10:35:19;23.70;62.40
75931;DHT22;64609;47.052;15.462;2023-09-30T10:37:46;23.80;63.30
75931;DHT22;64609;47.052;15.462;2023-09-30T10:42:52;24.10;62.60
75931;DHT22;64609;47.052;15.462;2023-09-30T10:45:45;24.20;61.40
75931;DHT22;64609;47.052;15.462;2023-09-30T10:48:38;24.30;61.00
75931;DHT22;64609;47.052;15.462;2023-09-30T10:51:18;24.30;60.90
75931;DHT22;64609;47.052;15.462;2023-09-30T10:53:48;24.40;61.80
75931;DHT22;64609;47.052;15.462;2023-09-30T10:56:17;24.50;60.20
75931;DHT22;64609;47.052;15.462;2023-09-30T10:58:51;24.60;60.60
75931;DHT22;64609;47.052;15.462;2023-09-30T11:01:19;24.80;60.10
75931;DHT22;64609;47.052;15.462;2023-09-30T11:03:46;24.80;59.40
75931;DHT22;64609;47.052;15.462;2023-09-30T11:06:17;24.90;59.40
75931;DHT22;64609;47.052;15.462;2023-09-30T11:08:55;24.90;58.70
75931;DHT22;64609;47.052;15.462;2023-09-30T11:11:44;25.00;58.00
75931;DHT22;64609;47.052;15.462;2023-09-30T11:14:30;25.10;58.50
75931;DHT22;64609;47.052;15.462;2023-09-30T11:16:58;25.30;58.10
75931;DHT22;64609;47.052;15.462;2023-09-30T11:19:24;25.40;57.40
75931;DHT22;64609;47.052;15.462;2023-09-30T11:21:54;25.50;56.60
75931;DHT22;64609;47.052;15.462;2023-09-30T11:24:20;25.40;56.10
75931;DHT22;64609;47.052;15.462;2023-09-30T11:26:47;25.40;56.70
75931;DHT22;64609;47.052;15.462;2023-09-30T11:29:14;25.50;56.50
75931;DHT22;64609;47.052;15.462;2023-09-30T11:31:45;25.60;56.40
75931;DHT22;64609;47.052;15.462;2023-09-30T11:34:12;25.70;56.60
75931;DHT22;64609;47.052;15.462;2023-09-30T11:36:50;25.80;56.30
75931;DHT22;64609;47.052;15.462;2023-09-30T11:41:51;25.80;56.30
75931;DHT22;64609;47.052;15.462;2023-09-30T11:44:18;25.90;56.60
75931;DHT22;64609;47.052;15.462;2023-09-30T11:49:36;26.00;56.30
75931;DHT22;64609;47.052;15.462;2023-09-30T11:52:13;26.10;55.90
75931;DHT22;64609;47.052;15.462;2023-09-30T11:54:44;26.20;56.30
75931;DHT22;64609;47.052;15.462;2023-09-30T11:57:13;26.20;55.50
75931;DHT22;64609;47.052;15.462;2023-09-30T11:59:43;26.30;55.60
75931;DHT22;64609;47.052;15.462;2023-09-30T12:02:09;26.40;55.90
75931;DHT22;64609;47.052;15.462;2023-09-30T12:04:36;26.40;55.50
75931;DHT22;64609;47.052;15.462;2023-09-30T12:07:02;26.50;54.90
75931;DHT22;64609;47.052;15.462;2023-09-30T12:09:28;26.60;54.90
75931;DHT22;64609;47.052;15.462;2023-09-30T12:11:55;26.60;54.90
75931;DHT22;64609;47.052;15.462;2023-09-30T12:14:26;26.60;54.80
75931;DHT22;64609;47.052;15.462;2023-09-30T12:16:51;26.60;54.20
75931;DHT22;64609;47.052;15.462;2023-09-30T12:19:17;26.70;54.20
75931;DHT22;64609;47.052;15.462;2023-09-30T12:21:44;26.70;54.10
75931;DHT22;64609;47.052;15.462;2023-09-30T12:24:12;26.70;54.10
75931;DHT22;64609;47.052;15.462;2023-09-30T12:26:46;26.70;54.00
75931;DHT22;64609;47.052;15.462;2023-09-30T12:29:14;26.70;53.50
75931;DHT22;64609;47.052;15.462;2023-09-30T12:31:45;26.60;54.00
75931;DHT22;64609;47.052;15.462;2023-09-30T12:34:12;26.50;53.70
75931;DHT22;64609;47.052;15.462;2023-09-30T12:36:39;26.50;54.20
75931;DHT22;64609;47.052;15.462;2023-09-30T12:39:05;26.50;53.80
75931;DHT22;64609;47.052;15.462;2023-09-30T12:41:45;26.50;54.20
75931;DHT22;64609;47.052;15.462;2023-09-30T12:44:10;26.60;54.30
75931;DHT22;64609;47.052;15.462;2023-09-30T12:46:36;26.70;54.20
75931;DHT22;64609;47.052;15.462;2023-09-30T12:49:05;26.80;54.30
75931;DHT22;64609;47.052;15.462;2023-09-30T12:51:31;26.90;54.40
75931;DHT22;64609;47.052;15.462;2023-09-30T12:53:56;27.10;54.00
75931;DHT22;64609;47.052;15.462;2023-09-30T12:56:23;27.30;53.30
75931;DHT22;64609;47.052;15.462;2023-09-30T12:58:49;27.50;53.10
75931;DHT22;64609;47.052;15.462;2023-09-30T13:01:15;27.70;53.10
75931;DHT22;64609;47.052;15.462;2023-09-30T13:03:46;27.80;52.80
75931;DHT22;64609;47.052;15.462;2023-09-30T13:06:12;28.00;51.90
75931;DHT22;64609;47.052;15.462;2023-09-30T13:08:38;28.10;51.90
75931;DHT22;64609;47.052;15.462;2023-09-30T13:11:04;28.30;51.60
75931;DHT22;64609;47.052;15.462;2023-09-30T13:13:30;28.40;51.20
75931;DHT22;64609;47.052;15.462;2023-09-30T13:15:59;28.50;51.10
75931;DHT22;64609;47.052;15.462;2023-09-30T13:18:24;28.60;50.80
75931;DHT22;64609;47.052;15.462;2023-09-30T13:20:50;28.60;51.00
75931;DHT22;64609;47.052;15.462;2023-09-30T13:23:18;28.50;50.80
75931;DHT22;64609;47.052;15.462;2023-09-30T13:25:44;28.40;50.70
75931;DHT22;64609;47.052;15.462;2023-09-30T13:28:10;28.40;51.10
75931;DHT22;64609;47.052;15.462;2023-09-30T13:30:35;28.50;51.40
75931;DHT22;64609;47.052;15.462;2023-09-30T13:33:01;28.50;50.40
75931;DHT22;64609;47.052;15.462;2023-09-30T13:35:27;28.30;50.80
75931;DHT22;64609;47.052;15.462;2023-09-30T13:37:53;28.20;51.30
75931;DHT22;64609;47.052;15.462;2023-09-30T13:40:18;28.20;51.20
75931;DHT22;64609;47.052;15.462;2023-09-30T13:42:45;28.20;51.40
75931;DHT22;64609;47.052;15.462;2023-09-30T13:45:11;28.20;51.20
75931;DHT22;64609;47.052;15.462;2023-09-30T13:47:36;28.20;51.40
75931;DHT22;64609;47.052;15.462;2023-09-30T13:50:02;28.20;51.80
75931;DHT22;64609;47.052;15.462;2023-09-30T13:52:36;28.10;51.50
75931;DHT22;64609;47.052;15.462;2023-09-30T13:55:02;28.10;51.60
75931;DHT22;64609;47.052;15.462;2023-09-30T13:57:29;28.00;51.00
75931;DHT22;64609;47.052;15.462;2023-09-30T13:59:56;27.80;51.20
75931;DHT22;64609;47.052;15.462;2023-09-30T14:02:21;27.70;51.20
75931;DHT22;64609;47.052;15.462;2023-09-30T14:04:48;27.70;51.60
75931;DHT22;64609;47.052;15.462;2023-09-30T14:07:14;27.80;51.30
75931;DHT22;64609;47.052;15.462;2023-09-30T14:09:39;27.80;51.60
75931;DHT22;64609;47.052;15.462;2023-09-30T14:12:05;27.80;51.50
75931;DHT22;64609;47.052;15.462;2023-09-30T14:14:32;27.70;50.80
75931;DHT22;64609;47.052;15.462;2023-09-30T14:16:59;27.60;51.20
75931;DHT22;64609;47.052;15.462;2023-09-30T14:19:25;27.50;50.90
75931;DHT22;64609;47.052;15.462;2023-09-30T14:21:51;27.40;50.80
75931;DHT22;64609;47.052;15.462;2023-09-30T14:24:17;27.30;50.80
75931;DHT22;64609;47.052;15.462;2023-09-30T14:26:42;27.30;51.00
75931;DHT22;64609;47.052;15.462;2023-09-30T14:29:09;27.30;51.30
75931;DHT22;64609;47.052;15.462;2023-09-30T14:31:37;27.30;50.90
75931;DHT22;64609;47.052;15.462;2023-09-30T14:34:03;27.30;50.90
75931;DHT22;64609;47.052;15.462;2023-09-30T14:36:30;27.30;50.80
75931;DHT22;64609;47.052;15.462;2023-09-30T14:38:58;27.40;50.70
75931;DHT22;64609;47.052;15.462;2023-09-30T14:41:24;27.30;50.20
75931;DHT22;64609;47.052;15.462;2023-09-30T14:43:50;27.30;50.40
75931;DHT22;64609;47.052;15.462;2023-09-30T14:46:16;27.30;50.50
75931;DHT22;64609;47.052;15.462;2023-09-30T14:48:42;27.20;50.80
75931;DHT22;64609;47.052;15.462;2023-09-30T14:51:09;27.20;50.90
75931;DHT22;64609;47.052;15.462;2023-09-30T14:53:35;27.20;51.00
75931;DHT22;64609;47.052;15.462;2023-09-30T14:56:00;27.10;50.90
75931;DHT22;64609;47.052;15.462;2023-09-30T14:58:26;27.00;50.60
75931;DHT22;64609;47.052;15.462;2023-09-30T15:00:52;27.00;50.90
75931;DHT22;64609;47.052;15.462;2023-09-30T15:03:19;26.90;50.90
75931;DHT22;64609;47.052;15.462;2023-09-30T15:05:47;26.90;51.40
75931;DHT22;64609;47.052;15.462;2023-09-30T15:08:13;26.90;51.50
75931;DHT22;64609;47.052;15.462;2023-09-30T15:10:39;26.80;51.70
75931;DHT22;64609;47.052;15.462;2023-09-30T15:13:04;26.70;52.00
75931;DHT22;64609;47.052;15.462;2023-09-30T15:15:30;26.60;52.50
75931;DHT22;64609;47.052;15.462;2023-09-30T15:17:56;26.50;52.60
75931;DHT22;64609;47.052;15.462;2023-09-30T15:20:22;26.50;53.00
75931;DHT22;64609;47.052;15.462;2023-09-30T15:22:47;26.50;53.10
75931;DHT22;64609;47.052;15.462;2023-09-30T15:25:13;26.40;53.50
75931;DHT22;64609;47.052;15.462;2023-09-30T15:27:39;26.40;53.70
75931;DHT22;64609;47.052;15.462;2023-09-30T15:30:05;26.30;53.80
75931;DHT22;64609;47.052;15.462;2023-09-30T15:32:33;26.20;53.80
75931;DHT22;64609;47.052;15.462;2023-09-30T15:34:59;26.20;54.00
75931;DHT22;64609;47.052;15.462;2023-09-30T15:37:25;26.10;54.10